Time;durP1;ratioP1;P1;durP2;ratioP2;P2;SDS_P1;SDS_P2;PMS_P1;PMS_P2;Temp;Humidity;BMP_temperature;BMP_pressure;BME280_temperature;BME280_humidity;BME280_pressure;Samples;Min_cycle;Max_cycle;Signal;HPM_P1;HPM_P2
2021/12/13 08:23:13;;;;;;;5.68;4.00;;;;;;;;;;5107825;27;20354;-46
2021/12/13 08:25:40;;;;;;;5.47;4.10;;;;;;;;;;5107891;28;20451;-44
2021/12/13 08:28:10;;;;;;;6.28;4.50;;;;;;;;;;5108452;28;20392;-48
2021/12/13 08:30:44;;;;;;;6.22;4.00;;;;;;;;;;5108396;28;20377;-47
2021/12/13 08:33:15;;;;;;;9.13;4.18;;;;;;;;;;5109132;28;21097;-48
2021/12/13 08:35:50;;;;;;;4.47;3.70;;;;;;;;;;5126211;28;20382;-52
2021/12/13 08:38:27;;;;;;;5.32;3.58;;;;;;;;;;5101033;28;20375;-49
2021/12/13 08:40:54;;;;;;;5.53;3.58;;;;;;;;;;5103793;28;20401;-50
2021/12/13 08:43:33;;;;;;;5.05;3.35;;;;;;;;;;5121318;28;20476;-47
2021/12/13 08:46:00;;;;;;;4.85;3.22;;;;;;;;;;5118841;28;20370;-50
2021/12/13 08:48:27;;;;;;;3.75;2.85;;;;;;;;;;5120320;28;20367;-47
2021/12/13 08:50:54;;;;;;;4.28;3.10;;;;;;;;;;5118360;28;20406;-47
2021/12/13 08:53:24;;;;;;;3.88;3.05;;;;;;;;;;5110726;28;20402;-49
2021/12/13 08:56:00;;;;;;;4.30;2.97;;;;;;;;;;5120637;28;20387;-48
2021/12/13 08:58:26;;;;;;;4.22;2.95;;;;;;;;;;5122434;28;20397;-51
2021/12/13 09:00:56;;;;;;;5.47;3.00;;;;;;;;;;5123321;28;20747;-52
2021/12/13 09:03:43;;;;;;;4.40;2.80;;;;;;;;;;5109006;28;20503;-47
2021/12/13 09:06:18;;;;;;;4.30;2.78;;;;;;;;;;5117402;28;20391;-45
2021/12/13 09:08:50;;;;;;;5.68;3.15;;;;;;;;;;5113711;28;20378;-45
2021/12/13 09:11:16;;;;;;;4.40;2.75;;;;;;;;;;5121723;28;20458;-51
2021/12/13 09:13:45;;;;;;;5.47;3.30;;;;;;;;;;5123850;28;20428;-48
2021/12/13 09:16:13;;;;;;;4.50;2.92;;;;;;;;;;5113180;28;20400;-48
2021/12/13 09:18:39;;;;;;;4.47;2.83;;;;;;;;;;5110710;28;20366;-49
2021/12/13 09:21:07;;;;;;;5.70;3.03;;;;;;;;;;5121963;28;20486;-51
2021/12/13 09:23:39;;;;;;;4.80;2.53;;;;;;;;;;5115590;28;20420;-48
2021/12/13 09:26:07;;;;;;;3.83;2.50;;;;;;;;;;5120904;28;20416;-51
2021/12/13 09:28:35;;;;;;;4.82;2.83;;;;;;;;;;5109161;28;20381;-51
2021/12/13 09:31:01;;;;;;;4.15;2.60;;;;;;;;;;5107369;28;20416;-51
2021/12/13 09:33:28;;;;;;;3.53;2.35;;;;;;;;;;5098909;28;20410;-55
2021/12/13 09:35:58;;;;;;;4.97;2.73;;;;;;;;;;5104092;28;20457;-51
2021/12/13 09:38:28;;;;;;;6.45;3.40;;;;;;;;;;5105903;28;20909;-48
2021/12/13 09:41:01;;;;;;;3.90;2.40;;;;;;;;;;5099864;28;20405;-49
2021/12/13 09:43:39;;;;;;;5.25;2.95;;;;;;;;;;5093685;28;20455;-45
2021/12/13 09:46:05;;;;;;;3.88;2.40;;;;;;;;;;5093861;28;20378;-46
2021/12/13 09:48:34;;;;;;;3.33;2.30;;;;;;;;;;5093892;28;20870;-46
2021/12/13 09:51:04;;;;;;;5.82;3.13;;;;;;;;;;5093311;28;20405;-51
2021/12/13 09:53:33;;;;;;;3.92;2.50;;;;;;;;;;5093320;28;20363;-48
2021/12/13 09:56:01;;;;;;;5.03;2.80;;;;;;;;;;5075258;28;20796;-47
2021/12/13 09:58:33;;;;;;;3.80;2.40;;;;;;;;;;5093647;28;20382;-53
2021/12/13 10:01:01;;;;;;;5.53;2.67;;;;;;;;;;5093061;28;20402;-49
2021/12/13 10:03:30;;;;;;;3.37;2.20;;;;;;;;;;5092859;28;20387;-50
2021/12/13 10:05:58;;;;;;;3.83;2.22;;;;;;;;;;5092721;28;20469;-47
2021/12/13 10:08:29;;;;;;;3.30;2.20;;;;;;;;;;5092829;28;21218;-51
2021/12/13 10:11:05;;;;;;;4.82;2.53;;;;;;;;;;5092679;28;20397;-50
2021/12/13 10:13:33;;;;;;;4.28;2.28;;;;;;;;;;5092897;28;20384;-51
2021/12/13 10:16:07;;;;;;;4.63;2.55;;;;;;;;;;5092801;28;21131;-46
2021/12/13 10:18:34;;;;;;;4.15;2.40;;;;;;;;;;5093163;28;20973;-48
2021/12/13 10:21:06;;;;;;;3.60;2.15;;;;;;;;;;5074453;28;20402;-47
2021/12/13 10:23:33;;;;;;;4.32;2.65;;;;;;;;;;5092797;28;20388;-45
2021/12/13 10:26:03;;;;;;;4.97;2.58;;;;;;;;;;5092595;28;20375;-48
2021/12/13 10:28:32;;;;;;;4.72;2.65;;;;;;;;;;5092524;28;20854;-47
2021/12/13 10:31:00;;;;;;;3.00;2.10;;;;;;;;;;5092807;28;20436;-47
2021/12/13 10:33:27;;;;;;;5.38;2.72;;;;;;;;;;5091923;28;20413;-53
2021/12/13 10:35:55;;;;;;;3.10;2.25;;;;;;;;;;5092610;28;20870;-53
2021/12/13 10:38:32;;;;;;;4.30;2.55;;;;;;;;;;5092190;28;20374;-50
2021/12/13 10:41:08;;;;;;;3.17;2.10;;;;;;;;;;5081087;28;20380;-52
2021/12/13 10:43:43;;;;;;;3.90;2.30;;;;;;;;;;5091598;28;20425;-48
2021/12/13 10:46:11;;;;;;;5.28;2.80;;;;;;;;;;5090973;28;20371;-49
2021/12/13 10:48:44;;;;;;;4.35;2.55;;;;;;;;;;5074001;28;20412;-47
2021/12/13 10:51:12;;;;;;;5.72;3.03;;;;;;;;;;5087831;28;20421;-47
2021/12/13 10:53:40;;;;;;;6.07;3.00;;;;;;;;;;5108435;28;20403;-51
2021/12/13 10:56:14;;;;;;;4.85;2.80;;;;;;;;;;5091886;28;20367;-48
2021/12/13 10:58:45;;;;;;;4.77;2.40;;;;;;;;;;5092802;28;20382;-49
2021/12/13 11:01:11;;;;;;;4.43;2.50;;;;;;;;;;5092631;28;20368;-49
2021/12/13 11:03:38;;;;;;;3.77;2.40;;;;;;;;;;5101635;28;20521;-48
2021/12/13 11:06:04;;;;;;;5.70;2.38;;;;;;;;;;5092224;28;20385;-48
2021/12/13 11:08:31;;;;;;;4.15;2.45;;;;;;;;;;5090876;28;20456;-46
2021/12/13 11:11:03;;;;;;;3.38;2.10;;;;;;;;;;5082455;28;20389;-45
2021/12/13 11:13:31;;;;;;;4.07;2.40;;;;;;;;;;5097953;28;20382;-45
2021/12/13 11:16:02;;;;;;;4.60;2.40;;;;;;;;;;5084650;28;20374;-45
2021/12/13 11:18:28;;;;;;;4.55;2.17;;;;;;;;;;5102683;28;20395;-48
2021/12/13 11:20:58;;;;;;;5.05;2.55;;;;;;;;;;5090917;28;20386;-48
2021/12/13 11:23:24;;;;;;;6.53;2.75;;;;;;;;;;5088484;28;20835;-44
2021/12/13 11:25:53;;;;;;;8.60;3.40;;;;;;;;;;5108428;28;20458;-47
2021/12/13 11:28:19;;;;;;;9.27;3.47;;;;;;;;;;5093027;28;20414;-45
2021/12/13 11:30:47;;;;;;;8.98;3.90;;;;;;;;;;5094303;28;20398;-48
2021/12/13 11:33:21;;;;;;;8.82;3.72;;;;;;;;;;5090745;28;21807;-50
2021/12/13 11:36:06;;;;;;;7.88;3.83;;;;;;;;;;5088481;28;20486;-50
2021/12/13 11:39:00;;;;;;;7.07;3.92;;;;;;;;;;5083651;28;20386;-54
2021/12/13 11:41:30;;;;;;;7.50;3.70;;;;;;;;;;5068602;28;20422;-50
2021/12/13 11:44:08;;;;;;;6.78;3.60;;;;;;;;;;5092789;28;20743;-46
2021/12/13 11:46:53;;;;;;;7.47;3.63;;;;;;;;;;5105798;28;20776;-47
2021/12/13 11:49:35;;;;;;;5.40;3.28;;;;;;;;;;5098500;28;20382;-47
2021/12/13 11:52:16;;;;;;;6.00;3.47;;;;;;;;;;5102384;28;20390;-47
2021/12/13 11:55:01;;;;;;;5.90;3.70;;;;;;;;;;5096577;28;20757;-48
2021/12/13 11:57:42;;;;;;;6.43;3.33;;;;;;;;;;5063788;28;20920;-47
2021/12/13 12:00:15;;;;;;;4.82;3.63;;;;;;;;;;5090890;28;20382;-48
2021/12/13 12:03:00;;;;;;;5.47;3.60;;;;;;;;;;5082720;28;20406;-48
2021/12/13 12:05:45;;;;;;;5.15;3.70;;;;;;;;;;5079027;28;20964;-45
2021/12/13 12:08:30;;;;;;;5.80;3.70;;;;;;;;;;5090549;28;20424;-44
2021/12/13 12:11:09;;;;;;;5.10;4.07;;;;;;;;;;5090422;28;20785;-46
2021/12/13 12:14:01;;;;;;;4.93;4.00;;;;;;;;;;5090642;28;20379;-45
2021/12/13 12:16:28;;;;;;;5.20;4.30;;;;;;;;;;5086151;28;20378;-49
2021/12/13 12:18:56;;;;;;;5.45;4.30;;;;;;;;;;5088464;28;20786;-48
2021/12/13 12:21:41;;;;;;;5.18;4.13;;;;;;;;;;5090126;28;20430;-46
2021/12/13 12:24:30;;;;;;;5.83;3.67;;;;;;;;;;5090200;28;20378;-46
2021/12/13 12:26:59;;;;;;;5.70;3.80;;;;;;;;;;5063735;28;20386;-49
2021/12/13 12:29:27;;;;;;;4.88;3.58;;;;;;;;;;5073854;28;20418;-48
2021/12/13 12:32:20;;;;;;;5.10;3.50;;;;;;;;;;5073421;28;20391;-48
2021/12/13 12:34:55;;;;;;;5.47;3.58;;;;;;;;;;5075359;28;20382;-50
2021/12/13 12:37:38;;;;;;;4.95;3.40;;;;;;;;;;5090302;28;20397;-50
2021/12/13 12:40:11;;;;;;;4.35;3.20;;;;;;;;;;5097219;28;20900;-49
2021/12/13 12:42:39;;;;;;;4.25;3.40;;;;;;;;;;5086098;28;20501;-49
2021/12/13 12:45:05;;;;;;;4.82;2.95;;;;;;;;;;5090887;28;20779;-47
2021/12/13 12:47:34;;;;;;;4.20;2.90;;;;;;;;;;5090525;28;20378;-50
2021/12/13 12:50:15;;;;;;;5.00;3.10;;;;;;;;;;5090743;28;20378;-46
2021/12/13 12:53:02;;;;;;;5.93;3.10;;;;;;;;;;5078200;28;20382;-50
2021/12/13 12:55:33;;;;;;;5.03;3.00;;;;;;;;;;5087547;28;20394;-49
2021/12/13 12:58:05;;;;;;;4.28;2.75;;;;;;;;;;5089505;28;20458;-48
2021/12/13 13:00:32;;;;;;;3.83;2.50;;;;;;;;;;5090501;28;20370;-51
2021/12/13 13:02:58;;;;;;;3.33;2.55;;;;;;;;;;5089643;28;20401;-46
2021/12/13 13:05:26;;;;;;;4.22;2.58;;;;;;;;;;5090325;28;20781;-49
2021/12/13 13:07:53;;;;;;;3.38;2.60;;;;;;;;;;5090723;28;20463;-50
2021/12/13 13:10:25;;;;;;;3.70;2.50;;;;;;;;;;5094300;28;20386;-46
2021/12/13 13:13:00;;;;;;;4.43;2.63;;;;;;;;;;5096497;28;20796;-44
2021/12/13 13:15:29;;;;;;;3.55;2.47;;;;;;;;;;5104227;28;20378;-46
2021/12/13 13:18:03;;;;;;;3.50;2.47;;;;;;;;;;5075510;28;20465;-46
2021/12/13 13:20:32;;;;;;;4.68;2.50;;;;;;;;;;5076070;28;20738;-45
2021/12/13 13:22:59;;;;;;;3.58;2.35;;;;;;;;;;5104630;28;20431;-47
2021/12/13 13:25:31;;;;;;;3.53;2.40;;;;;;;;;;5092576;28;20370;-46
2021/12/13 13:27:59;;;;;;;4.53;2.80;;;;;;;;;;5091856;28;20405;-47
2021/12/13 13:30:45;;;;;;;3.00;2.30;;;;;;;;;;5092439;28;20439;-46
2021/12/13 13:33:11;;;;;;;4.20;2.60;;;;;;;;;;5092803;28;20386;-44
2021/12/13 13:35:37;;;;;;;3.00;2.30;;;;;;;;;;5093418;28;20386;-45
2021/12/13 13:38:05;;;;;;;4.65;2.55;;;;;;;;;;5093477;28;20382;-47
2021/12/13 13:40:33;;;;;;;3.10;2.33;;;;;;;;;;5086404;28;20392;-44
2021/12/13 13:43:01;;;;;;;3.90;2.67;;;;;;;;;;5075554;28;20459;-47
2021/12/13 13:45:29;;;;;;;3.90;2.70;;;;;;;;;;5093651;28;20378;-47
2021/12/13 13:47:59;;;;;;;4.53;2.90;;;;;;;;;;5091575;28;20390;-47
2021/12/13 13:50:26;;;;;;;4.10;2.90;;;;;;;;;;5098017;28;20370;-44
2021/12/13 13:52:53;;;;;;;6.75;3.33;;;;;;;;;;5092965;28;20446;-45
2021/12/13 13:55:25;;;;;;;4.18;2.75;;;;;;;;;;5093045;28;20378;-46
2021/12/13 13:57:53;;;;;;;4.68;2.72;;;;;;;;;;5096015;28;20390;-46
2021/12/13 14:00:19;;;;;;;3.70;2.30;;;;;;;;;;5090762;28;20397;-46
2021/12/13 14:02:46;;;;;;;4.95;3.38;;;;;;;;;;5094238;28;20418;-46
2021/12/13 14:05:15;;;;;;;5.22;2.90;;;;;;;;;;5103498;28;20378;-46
2021/12/13 14:07:42;;;;;;;6.55;3.40;;;;;;;;;;5090371;28;20731;-49
2021/12/13 14:10:10;;;;;;;5.30;3.15;;;;;;;;;;5090049;28;20406;-47
2021/12/13 14:12:40;;;;;;;3.38;2.38;;;;;;;;;;5092776;28;20376;-46
2021/12/13 14:15:12;;;;;;;3.72;2.65;;;;;;;;;;5092936;28;20789;-47
2021/12/13 14:17:39;;;;;;;4.38;2.80;;;;;;;;;;5093982;28;20382;-44
2021/12/13 14:20:14;;;;;;;4.10;2.60;;;;;;;;;;5102492;28;20465;-43
2021/12/13 14:22:41;;;;;;;4.25;2.55;;;;;;;;;;5096401;28;20477;-49
2021/12/13 14:25:07;;;;;;;3.10;2.30;;;;;;;;;;5101728;28;20377;-49
2021/12/13 14:27:34;;;;;;;4.90;2.90;;;;;;;;;;5092898;28;20516;-43
2021/12/13 14:30:20;;;;;;;4.50;2.90;;;;;;;;;;5091743;28;20376;-45
2021/12/13 14:32:47;;;;;;;5.40;3.42;;;;;;;;;;5090928;28;20387;-45
2021/12/13 14:35:18;;;;;;;5.15;3.30;;;;;;;;;;5104345;28;20452;-43
2021/12/13 14:37:45;;;;;;;4.93;3.45;;;;;;;;;;5091866;28;20445;-46
2021/12/13 14:40:11;;;;;;;5.25;3.35;;;;;;;;;;5090224;28;20433;-44
2021/12/13 14:42:40;;;;;;;6.20;3.70;;;;;;;;;;5090435;28;20406;-45
2021/12/13 14:45:11;;;;;;;7.22;4.07;;;;;;;;;;5089971;28;20445;-47
2021/12/13 14:47:46;;;;;;;8.60;4.30;;;;;;;;;;5089548;28;20386;-47
2021/12/13 14:50:18;;;;;;;8.30;3.92;;;;;;;;;;5077772;28;20388;-46
2021/12/13 14:52:52;;;;;;;8.05;3.67;;;;;;;;;;5090761;28;20398;-48
2021/12/13 14:55:21;;;;;;;5.68;3.35;;;;;;;;;;5092306;28;20374;-46
2021/12/13 14:57:57;;;;;;;8.98;4.43;;;;;;;;;;5092130;28;20393;-52
2021/12/13 15:00:26;;;;;;;7.03;3.90;;;;;;;;;;5094855;28;20382;-49
2021/12/13 15:02:54;;;;;;;5.93;3.70;;;;;;;;;;5090332;28;20414;-49
2021/12/13 15:05:24;;;;;;;6.80;3.65;;;;;;;;;;5092058;28;20405;-48
2021/12/13 15:07:50;;;;;;;6.32;3.60;;;;;;;;;;5091691;28;20846;-50
2021/12/13 15:10:24;;;;;;;5.73;3.77;;;;;;;;;;5091275;28;20397;-49
2021/12/13 15:12:54;;;;;;;8.50;3.57;;;;;;;;;;5091153;28;20877;-53
2021/12/13 15:15:26;;;;;;;5.47;3.72;;;;;;;;;;5091715;28;20378;-51
2021/12/13 15:17:56;;;;;;;6.85;3.88;;;;;;;;;;5092190;28;20410;-47
2021/12/13 15:20:25;;;;;;;6.53;4.00;;;;;;;;;;5091440;28;20374;-48
2021/12/13 15:22:53;;;;;;;5.57;3.40;;;;;;;;;;5091161;28;20437;-47
2021/12/13 15:25:23;;;;;;;6.15;3.80;;;;;;;;;;5072888;28;20389;-50
2021/12/13 15:27:50;;;;;;;7.18;3.75;;;;;;;;;;5089785;28;20390;-53
2021/12/13 15:30:18;;;;;;;5.22;3.60;;;;;;;;;;5090356;28;20398;-47
2021/12/13 15:32:46;;;;;;;5.38;3.80;;;;;;;;;;5071870;28;20375;-45
2021/12/13 15:35:14;;;;;;;5.67;3.70;;;;;;;;;;5053056;28;20372;-45
2021/12/13 15:37:42;;;;;;;6.45;4.10;;;;;;;;;;5071164;28;20382;-47
2021/12/13 15:40:08;;;;;;;8.10;4.70;;;;;;;;;;5089788;28;20491;-45
2021/12/13 15:42:36;;;;;;;5.70;3.60;;;;;;;;;;5101389;28;20410;-49
2021/12/13 15:45:17;;;;;;;4.82;3.70;;;;;;;;;;5104284;28;20388;-50
2021/12/13 15:50:31;;;;;;;6.43;4.20;;;;;;;;;;5090863;28;20369;-51
2021/12/13 15:52:58;;;;;;;5.43;3.92;;;;;;;;;;5089978;28;20434;-47
2021/12/13 15:55:39;;;;;;;9.07;4.78;;;;;;;;;;5089759;28;20370;-46
2021/12/13 15:58:18;;;;;;;7.28;4.50;;;;;;;;;;5095336;28;20393;-46
2021/12/13 16:00:45;;;;;;;7.38;4.55;;;;;;;;;;5090793;28;20446;-48
2021/12/13 16:03:21;;;;;;;6.82;4.60;;;;;;;;;;5090940;28;20414;-49
2021/12/13 16:05:49;;;;;;;8.02;5.30;;;;;;;;;;5073820;28;20382;-45
2021/12/13 16:08:15;;;;;;;7.45;5.32;;;;;;;;;;5090768;28;20381;-44
2021/12/13 16:10:44;;;;;;;8.88;5.15;;;;;;;;;;5072269;28;20370;-44
2021/12/13 16:13:10;;;;;;;9.80;6.57;;;;;;;;;;5072489;28;20463;-47
2021/12/13 16:15:36;;;;;;;8.70;6.47;;;;;;;;;;5072346;28;20389;-46
2021/12/13 16:18:05;;;;;;;10.45;6.28;;;;;;;;;;5072929;28;20374;-46
2021/12/13 16:20:33;;;;;;;10.13;6.80;;;;;;;;;;5072006;28;20449;-45
2021/12/13 16:23:03;;;;;;;8.40;6.00;;;;;;;;;;5090249;28;20418;-48
2021/12/13 16:25:29;;;;;;;8.73;6.00;;;;;;;;;;5090360;28;20370;-46
2021/12/13 16:27:59;;;;;;;7.25;5.50;;;;;;;;;;5072810;28;20394;-44
2021/12/13 16:30:28;;;;;;;10.90;6.82;;;;;;;;;;5089923;28;20491;-48
2021/12/13 16:32:54;;;;;;;8.47;6.17;;;;;;;;;;5090843;28;20381;-44
2021/12/13 16:35:24;;;;;;;8.30;6.07;;;;;;;;;;5090293;28;20378;-49
2021/12/13 16:37:58;;;;;;;9.43;6.07;;;;;;;;;;5097254;28;20387;-45
2021/12/13 16:40:27;;;;;;;7.10;5.47;;;;;;;;;;5070536;28;20392;-45
2021/12/13 16:42:58;;;;;;;8.18;5.78;;;;;;;;;;5090860;28;20416;-47
2021/12/13 16:45:24;;;;;;;8.53;5.60;;;;;;;;;;5086505;28;20388;-49
2021/12/13 16:47:53;;;;;;;8.27;5.68;;;;;;;;;;5094710;28;20942;-44
2021/12/13 16:50:20;;;;;;;9.63;6.10;;;;;;;;;;5094727;28;20711;-49
2021/12/13 16:52:46;;;;;;;6.37;4.87;;;;;;;;;;5076127;28;20753;-51
2021/12/13 16:55:13;;;;;;;7.97;5.15;;;;;;;;;;5076001;28;20407;-54
2021/12/13 16:57:41;;;;;;;8.02;5.65;;;;;;;;;;5075992;28;20382;-53
2021/12/13 17:00:17;;;;;;;8.02;5.53;;;;;;;;;;5094523;28;20393;-48
2021/12/13 17:02:45;;;;;;;6.57;4.90;;;;;;;;;;5085960;28;20406;-45
2021/12/13 17:05:13;;;;;;;7.63;4.72;;;;;;;;;;5092534;28;20393;-47
2021/12/13 17:07:44;;;;;;;7.07;5.05;;;;;;;;;;5074830;28;20433;-50
2021/12/13 17:10:26;;;;;;;5.55;4.47;;;;;;;;;;5076000;28;20378;-45
2021/12/13 17:12:56;;;;;;;6.78;4.38;;;;;;;;;;5094201;28;20406;-50
2021/12/13 17:15:40;;;;;;;5.22;4.20;;;;;;;;;;5094048;28;20386;-51
2021/12/13 17:18:30;;;;;;;5.17;3.83;;;;;;;;;;5094080;28;20374;-45
2021/12/13 17:20:59;;;;;;;6.10;4.70;;;;;;;;;;5076153;28;20396;-45
2021/12/13 17:23:33;;;;;;;5.82;4.20;;;;;;;;;;5093467;28;20747;-45
2021/12/13 17:26:18;;;;;;;5.57;4.20;;;;;;;;;;5074366;28;20386;-47
2021/12/13 17:28:44;;;;;;;5.40;4.10;;;;;;;;;;5092807;28;20396;-47
2021/12/13 17:31:10;;;;;;;4.83;4.00;;;;;;;;;;5092915;28;20419;-48
2021/12/13 17:33:38;;;;;;;5.03;3.80;;;;;;;;;;5084524;28;20411;-47
2021/12/13 17:36:08;;;;;;;5.23;4.40;;;;;;;;;;5067645;28;20423;-47
2021/12/13 17:38:35;;;;;;;6.78;4.75;;;;;;;;;;5100819;28;20441;-43
2021/12/13 17:41:05;;;;;;;6.40;4.75;;;;;;;;;;5081983;28;20792;-46
2021/12/13 17:43:34;;;;;;;6.35;5.20;;;;;;;;;;5093731;28;20453;-41
2021/12/13 17:46:02;;;;;;;6.70;5.55;;;;;;;;;;5093534;28;20382;-45
2021/12/13 17:48:34;;;;;;;7.10;5.57;;;;;;;;;;5096024;28;20462;-44
2021/12/13 17:51:06;;;;;;;8.33;6.53;;;;;;;;;;5090175;28;20482;-49
2021/12/13 17:53:38;;;;;;;8.90;6.43;;;;;;;;;;5094415;28;20452;-44
2021/12/13 17:56:07;;;;;;;8.52;6.05;;;;;;;;;;5088865;28;20416;-45
2021/12/13 17:58:35;;;;;;;8.00;5.97;;;;;;;;;;5074446;28;20438;-45
2021/12/13 18:01:07;;;;;;;8.80;6.05;;;;;;;;;;5076471;28;20474;-47
2021/12/13 18:03:35;;;;;;;7.85;5.43;;;;;;;;;;5078737;28;20392;-44
2021/12/13 18:06:10;;;;;;;8.02;5.32;;;;;;;;;;5102940;28;20381;-45
2021/12/13 18:08:37;;;;;;;9.35;5.78;;;;;;;;;;5083183;28;20390;-53
2021/12/13 18:11:04;;;;;;;8.38;5.30;;;;;;;;;;5095042;28;20377;-49
2021/12/13 18:13:39;;;;;;;8.95;5.45;;;;;;;;;;5102087;28;20370;-51
2021/12/13 18:16:05;;;;;;;11.13;5.57;;;;;;;;;;5090912;28;20383;-53
2021/12/13 18:18:32;;;;;;;8.80;5.50;;;;;;;;;;5095887;28;20419;-52
2021/12/13 18:20:59;;;;;;;10.20;5.57;;;;;;;;;;5110468;28;20474;-53
2021/12/13 18:23:40;;;;;;;8.38;5.68;;;;;;;;;;5105350;28;20944;-53
2021/12/13 18:26:15;;;;;;;9.97;6.10;;;;;;;;;;5090123;28;20375;-53
2021/12/13 18:28:41;;;;;;;8.75;5.53;;;;;;;;;;5100846;27;20434;-54
2021/12/13 18:31:07;;;;;;;6.72;5.75;;;;;;;;;;5088393;28;20537;-53
2021/12/13 18:33:41;;;;;;;8.68;6.15;;;;;;;;;;5104871;28;20459;-51
2021/12/13 18:36:09;;;;;;;9.68;6.20;;;;;;;;;;5097041;28;20370;-52
2021/12/13 18:38:41;;;;;;;8.05;5.78;;;;;;;;;;5078639;28;20916;-56
2021/12/13 18:41:10;;;;;;;9.07;5.72;;;;;;;;;;5083113;28;20397;-55
2021/12/13 18:44:08;;;;;;;7.22;5.97;;;;;;;;;;5092104;28;20389;-55
2021/12/13 18:46:52;;;;;;;8.65;6.90;;;;;;;;;;5069025;28;20378;-53
2021/12/13 18:49:22;;;;;;;8.40;6.45;;;;;;;;;;5070901;28;20426;-52
2021/12/13 18:51:51;;;;;;;7.45;5.88;;;;;;;;;;5077082;28;20900;-53
2021/12/13 18:54:18;;;;;;;7.78;5.97;;;;;;;;;;5083099;28;20390;-54
2021/12/13 18:56:45;;;;;;;7.65;5.82;;;;;;;;;;5090834;28;20366;-52
2021/12/13 18:59:17;;;;;;;6.97;5.63;;;;;;;;;;5092353;28;20366;-52
2021/12/13 19:01:43;;;;;;;6.78;5.60;;;;;;;;;;5090052;28;20428;-53
2021/12/13 19:04:21;;;;;;;6.78;5.75;;;;;;;;;;5094520;28;20398;-50
2021/12/13 19:06:56;;;;;;;6.68;5.63;;;;;;;;;;5083370;28;20406;-50
2021/12/13 19:09:28;;;;;;;8.27;6.05;;;;;;;;;;5087666;28;20384;-52
2021/12/13 19:12:07;;;;;;;7.10;5.88;;;;;;;;;;5077836;28;20899;-55
2021/12/13 19:14:40;;;;;;;7.07;5.78;;;;;;;;;;5094661;28;20414;-51
2021/12/13 19:17:19;;;;;;;6.63;5.30;;;;;;;;;;5091807;28;20405;-54
2021/12/13 19:19:48;;;;;;;6.60;5.38;;;;;;;;;;5092212;28;20378;-52
2021/12/13 19:22:23;;;;;;;7.32;5.75;;;;;;;;;;5090063;28;20503;-52
2021/12/13 19:24:51;;;;;;;7.25;5.60;;;;;;;;;;5091192;28;20382;-52
2021/12/13 19:27:20;;;;;;;7.90;6.00;;;;;;;;;;5101300;28;20401;-52
2021/12/13 19:29:54;;;;;;;6.72;5.40;;;;;;;;;;5096947;28;20453;-56
2021/12/13 19:32:25;;;;;;;7.45;5.88;;;;;;;;;;5078383;28;20604;-54
2021/12/13 19:34:54;;;;;;;6.90;5.65;;;;;;;;;;5080178;28;20378;-51
2021/12/13 19:37:40;;;;;;;7.38;5.45;;;;;;;;;;5090710;28;20921;-50
2021/12/13 19:40:20;;;;;;;6.72;5.43;;;;;;;;;;5074688;28;20477;-49
2021/12/13 19:42:47;;;;;;;5.80;5.20;;;;;;;;;;5081313;28;20393;-49
2021/12/13 19:45:16;;;;;;;5.90;5.30;;;;;;;;;;5089123;28;20397;-48
2021/12/13 19:47:47;;;;;;;6.22;5.63;;;;;;;;;;5102575;28;20729;-51
2021/12/13 19:50:22;;;;;;;6.90;6.05;;;;;;;;;;5079169;28;20435;-53
2021/12/13 19:53:04;;;;;;;6.80;5.90;;;;;;;;;;5091193;28;20410;-53
2021/12/13 19:55:31;;;;;;;6.60;5.55;;;;;;;;;;5079907;28;20364;-54
2021/12/13 19:58:03;;;;;;;6.75;6.05;;;;;;;;;;5085770;28;20386;-49
2021/12/13 20:00:32;;;;;;;6.03;5.43;;;;;;;;;;5073822;28;20392;-51
2021/12/13 20:03:02;;;;;;;6.30;5.50;;;;;;;;;;5090223;28;20413;-51
2021/12/13 20:05:37;;;;;;;6.80;5.43;;;;;;;;;;5084424;28;20490;-51
2021/12/13 20:08:13;;;;;;;6.55;5.82;;;;;;;;;;5070111;28;20374;-51
2021/12/13 20:10:42;;;;;;;8.20;7.40;;;;;;;;;;5088509;28;20481;-54
2021/12/13 20:13:20;;;;;;;6.68;5.80;;;;;;;;;;5087052;28;20390;-49
2021/12/13 20:16:04;;;;;;;6.60;5.90;;;;;;;;;;5072346;28;20366;-54
2021/12/13 20:18:38;;;;;;;6.75;6.05;;;;;;;;;;5069722;28;20445;-54
2021/12/13 20:21:06;;;;;;;7.55;6.32;;;;;;;;;;5082095;28;20431;-55
2021/12/13 20:23:40;;;;;;;6.85;6.00;;;;;;;;;;5083519;28;20416;-51
2021/12/13 20:26:10;;;;;;;7.05;6.18;;;;;;;;;;5086402;28;20427;-51
2021/12/13 20:28:42;;;;;;;5.40;4.90;;;;;;;;;;5087721;28;20430;-60
2021/12/13 20:31:21;;;;;;;5.57;5.07;;;;;;;;;;5081880;28;20409;-60
2021/12/13 20:33:50;;;;;;;5.70;5.10;;;;;;;;;;5090870;28;20381;-60
2021/12/13 20:36:16;;;;;;;5.30;4.80;;;;;;;;;;5072440;28;20378;-61
2021/12/13 20:38:48;;;;;;;5.30;4.53;;;;;;;;;;5069295;28;20895;-61
2021/12/13 20:41:27;;;;;;;5.13;4.45;;;;;;;;;;5084058;28;20473;-60
2021/12/13 20:43:58;;;;;;;4.90;4.40;;;;;;;;;;5077607;28;20378;-60
2021/12/13 20:46:25;;;;;;;5.45;4.55;;;;;;;;;;5090701;28;20435;-60
